Terminal Aerodrome Forecast
Issued by NWS

Home | Current Version | Previous Version | Text Only | Print | Product List | Glossary On
Versions: 1 2 3 4 5 6 7 8 9 10 11 12
000
FTUS45 KVEF 252338
TAFVGT
TAF
KVGT 252338Z 2600/2624 05006KT P6SM FEW250
     FM260800 35010KT P6SM SCT250
     FM261700 04010KT P6SM SCT250=

USA.gov is the U.S. government's official web portal to all federal, state and local government web resources and services.